Time;durP1;ratioP1;P1;durP2;ratioP2;P2;SDS_P1;SDS_P2;PMS_P1;PMS_P2;Temp;Humidity;BMP_temperature;BMP_pressure;BME280_temperature;BME280_humidity;BME280_pressure;Samples;Min_cycle;Max_cycle;Signal;HPM_P1;HPM_P2
2023/04/21 00:00:09;;;;;;;14.50;13.10;;;;;;;2.98;100.00;95419.53;5066092;28;20047;-73
2023/04/21 00:02:38;;;;;;;17.80;13.38;;;;;;;2.97;100.00;95428.94;5070359;28;20049;-73
2023/04/21 00:05:08;;;;;;;13.52;12.32;;;;;;;3.08;100.00;95424.25;5063226;28;20135;-73
2023/04/21 00:07:36;;;;;;;12.82;11.68;;;;;;;3.10;100.00;95430.13;5062669;28;20525;-73
2023/04/21 00:10:03;;;;;;;15.43;13.88;;;;;;;3.08;100.00;95429.38;5064670;28;20052;-73
2023/04/21 00:12:30;;;;;;;15.73;14.30;;;;;;;3.09;100.00;95427.63;5069395;28;20045;-73
2023/04/21 00:14:58;;;;;;;16.50;13.70;;;;;;;3.13;100.00;95434.31;5069559;28;20044;-73
2023/04/21 00:17:24;;;;;;;14.60;12.70;;;;;;;3.11;100.00;95426.66;5068876;28;20057;-73
2023/04/21 00:19:51;;;;;;;12.02;10.55;;;;;;;3.28;100.00;95430.31;5067897;28;20049;-73
2023/04/21 00:22:18;;;;;;;11.45;10.45;;;;;;;3.23;100.00;95425.38;5066444;28;20406;-73
2023/04/21 00:24:44;;;;;;;15.82;11.63;;;;;;;3.13;100.00;95426.63;5062389;28;20052;-73
2023/04/21 00:27:12;;;;;;;14.23;12.73;;;;;;;3.07;100.00;95425.13;5073177;28;20048;-73
2023/04/21 00:29:39;;;;;;;25.08;14.95;;;;;;;2.95;100.00;95407.69;5073269;28;20478;-73
2023/04/21 00:32:08;;;;;;;23.92;14.15;;;;;;;2.84;100.00;95399.59;5073036;28;20037;-73
2023/04/21 00:37:57;;;;;;;27.52;14.43;;;;;;;3.06;100.00;95403.00;5069812;28;20088;-75
2023/04/21 00:40:23;;;;;;;28.40;15.35;;;;;;;3.06;100.00;95400.44;5078857;28;20049;-75
2023/04/21 00:42:50;;;;;;;15.98;14.32;;;;;;;3.11;100.00;95398.53;5069459;28;20044;-75
2023/04/21 00:45:16;;;;;;;17.58;15.38;;;;;;;3.19;100.00;95398.25;5080295;28;20048;-76
2023/04/21 00:47:44;;;;;;;17.13;15.52;;;;;;;3.28;100.00;95392.75;5074542;28;20044;-76
2023/04/21 00:50:11;;;;;;;24.48;15.57;;;;;;;3.28;100.00;95384.22;5078373;28;20040;-76
2023/04/21 00:52:40;;;;;;;17.90;15.40;;;;;;;3.33;100.00;95384.88;5071739;28;20090;-75
2023/04/21 00:55:08;;;;;;;17.38;15.55;;;;;;;3.37;100.00;95387.25;5064083;28;20143;-75
2023/04/21 00:57:36;;;;;;;16.55;14.98;;;;;;;3.42;100.00;95387.06;5067313;28;20052;-76
2023/04/21 01:00:03;;;;;;;16.10;14.52;;;;;;;3.47;100.00;95389.44;5066753;28;20044;-76
2023/04/21 01:02:30;;;;;;;30.17;14.73;;;;;;;3.40;100.00;95388.84;5073626;28;20040;-76
2023/04/21 01:04:58;;;;;;;15.23;12.90;;;;;;;3.34;100.00;95387.38;5067812;28;20473;-75
2023/04/21 01:07:25;;;;;;;24.15;15.30;;;;;;;3.35;100.00;95396.72;5071972;28;20048;-76
2023/04/21 01:09:51;;;;;;;19.27;14.70;;;;;;;3.42;100.00;95401.59;5064416;28;20486;-76
2023/04/21 01:12:18;;;;;;;29.63;16.55;;;;;;;3.47;100.00;95407.34;5080011;28;20043;-76
2023/04/21 01:14:44;;;;;;;20.45;15.68;;;;;;;3.44;100.00;95405.75;5070350;28;20477;-76
2023/04/21 01:17:11;;;;;;;19.67;16.95;;;;;;;3.22;100.00;95397.28;5073662;28;20045;-75
2023/04/21 01:19:40;;;;;;;24.60;15.80;;;;;;;3.31;100.00;95396.91;5075782;28;20048;-76
2023/04/21 01:22:09;;;;;;;18.85;16.85;;;;;;;3.07;100.00;95391.84;5062753;28;20048;-76
2023/04/21 01:24:38;;;;;;;23.35;17.08;;;;;;;3.07;100.00;95394.41;5071445;28;20106;-76
2023/04/21 01:27:09;;;;;;;21.13;15.40;;;;;;;3.20;100.00;95396.50;5074310;28;20049;-76
2023/04/21 01:29:35;;;;;;;18.92;16.95;;;;;;;3.24;100.00;95392.94;5071660;28;20495;-75
2023/04/21 01:32:06;;;;;;;18.42;16.55;;;;;;;3.18;100.00;95396.56;5069995;28;20113;-76
2023/04/21 01:34:33;;;;;;;18.70;14.02;;;;;;;3.16;100.00;95393.25;5064745;28;20076;-76
2023/04/21 01:36:59;;;;;;;16.27;14.85;;;;;;;3.14;100.00;95398.41;5075967;28;20132;-76
2023/04/21 01:39:27;;;;;;;18.80;16.77;;;;;;;3.13;100.00;95399.31;5068976;28;20044;-75
2023/04/21 01:41:56;;;;;;;24.67;16.70;;;;;;;3.16;100.00;95395.81;5078018;28;20056;-75
2023/04/21 01:44:23;;;;;;;19.52;15.43;;;;;;;3.14;100.00;95389.91;5067361;28;20561;-76
2023/04/21 01:46:50;;;;;;;16.70;15.05;;;;;;;3.22;100.00;95399.81;5068426;28;20445;-76
2023/04/21 01:49:17;;;;;;;20.13;16.08;;;;;;;3.20;100.00;95399.06;5078246;28;20052;-74
2023/04/21 01:51:43;;;;;;;21.90;15.85;;;;;;;3.21;100.00;95405.84;5077699;28;20101;-74
2023/04/21 01:54:10;;;;;;;17.30;15.57;;;;;;;3.22;100.00;95397.28;5072565;28;20128;-74
2023/04/21 01:56:37;;;;;;;17.88;16.08;;;;;;;3.24;100.00;95400.59;5066026;28;20586;-73
2023/04/21 01:59:04;;;;;;;19.23;15.60;;;;;;;3.31;100.00;95404.59;5058509;28;20048;-74
2023/04/21 02:01:30;;;;;;;23.73;15.55;;;;;;;3.27;100.00;95406.44;5063208;28;20102;-73
2023/04/21 02:03:56;;;;;;;22.05;16.30;;;;;;;3.26;100.00;95409.88;5079469;28;20727;-74
2023/04/21 02:06:23;;;;;;;18.73;16.75;;;;;;;3.24;100.00;95409.13;5066209;28;20080;-73
2023/04/21 02:08:49;;;;;;;21.63;17.35;;;;;;;3.20;100.00;95393.94;5066879;28;20043;-73
2023/04/21 02:11:16;;;;;;;29.50;17.08;;;;;;;3.20;100.00;95401.63;5078489;28;20044;-73
2023/04/21 02:13:43;;;;;;;22.15;17.85;;;;;;;3.28;100.00;95402.16;5081679;28;20775;-73
2023/04/21 02:16:10;;;;;;;17.92;16.08;;;;;;;3.35;100.00;95406.97;5077628;28;20137;-73
2023/04/21 02:18:38;;;;;;;17.65;15.77;;;;;;;3.34;100.00;95400.19;5079267;28;20055;-73
2023/04/21 02:21:06;;;;;;;17.48;14.82;;;;;;;3.06;100.00;95397.88;5068202;28;20083;-73
2023/04/21 02:23:32;;;;;;;21.00;15.07;;;;;;;3.14;100.00;95400.97;5073544;28;20503;-73
2023/04/21 02:25:59;;;;;;;18.02;16.17;;;;;;;3.19;100.00;95408.47;5080548;28;20136;-73
2023/04/21 02:28:25;;;;;;;21.20;15.88;;;;;;;3.17;100.00;95411.97;5071958;28;20418;-73
2023/04/21 02:30:53;;;;;;;18.00;16.13;;;;;;;3.20;100.00;95405.03;5067819;28;20097;-73
2023/04/21 02:33:19;;;;;;;20.52;14.65;;;;;;;3.25;100.00;95410.78;5075674;28;20052;-73
2023/04/21 02:35:46;;;;;;;19.73;17.48;;;;;;;3.03;100.00;95418.47;5076531;28;20075;-73
2023/04/21 02:38:12;;;;;;;18.77;15.82;;;;;;;3.02;100.00;95415.97;5077549;28;20044;-73
2023/04/21 02:40:39;;;;;;;18.50;16.58;;;;;;;2.99;100.00;95413.53;5074409;28;20052;-73
2023/04/21 02:43:06;;;;;;;20.30;16.80;;;;;;;2.91;100.00;95399.31;5067230;28;20045;-73
2023/04/21 02:45:33;;;;;;;25.63;18.13;;;;;;;2.92;100.00;95400.13;5063837;28;20056;-73
2023/04/21 02:48:00;;;;;;;20.83;18.60;;;;;;;2.89;100.00;95397.69;5064596;28;20101;-73
2023/04/21 02:50:27;;;;;;;21.70;17.98;;;;;;;2.98;100.00;95399.09;5079879;28;20560;-73
2023/04/21 02:52:53;;;;;;;27.48;19.23;;;;;;;2.91;100.00;95398.47;5075927;28;20407;-73
2023/04/21 02:55:21;;;;;;;20.88;18.67;;;;;;;2.94;100.00;95398.38;5076706;28;20048;-73
2023/04/21 02:57:47;;;;;;;24.98;20.00;;;;;;;2.93;100.00;95401.81;5070232;28;20051;-73
2023/04/21 03:00:14;;;;;;;23.75;19.13;;;;;;;3.06;100.00;95402.16;5079133;28;20048;-73
2023/04/21 03:02:41;;;;;;;21.52;18.45;;;;;;;3.12;100.00;95401.94;5073780;28;20075;-73
2023/04/21 03:05:09;;;;;;;23.05;19.02;;;;;;;3.14;100.00;95390.72;5075358;28;20112;-73
2023/04/21 03:07:36;;;;;;;21.60;19.30;;;;;;;3.01;100.00;95394.69;5066023;28;20612;-73
2023/04/21 03:10:02;;;;;;;24.45;20.73;;;;;;;2.91;100.00;95394.19;5070554;28;20135;-73
2023/04/21 03:12:29;;;;;;;23.70;19.38;;;;;;;2.84;100.00;95391.94;5073687;28;20049;-73
2023/04/21 03:14:55;;;;;;;21.08;18.90;;;;;;;2.97;100.00;95389.75;5076772;28;20041;-73
2023/04/21 03:17:22;;;;;;;20.00;17.80;;;;;;;3.00;100.00;95392.16;5070898;28;20048;-73
2023/04/21 03:19:48;;;;;;;22.30;19.20;;;;;;;2.84;100.00;95385.09;5072891;28;20043;-73
2023/04/21 03:22:16;;;;;;;25.67;19.70;;;;;;;2.75;100.00;95374.41;5066465;28;20040;-73
2023/04/21 03:24:42;;;;;;;31.85;20.73;;;;;;;2.80;100.00;95375.88;5069718;28;20048;-73
2023/04/21 03:27:09;;;;;;;21.35;19.13;;;;;;;2.88;100.00;95371.28;5064904;28;20117;-73
2023/04/21 03:29:36;;;;;;;21.52;18.25;;;;;;;2.77;100.00;95370.03;5070564;28;20056;-73
2023/04/21 03:32:02;;;;;;;24.08;19.63;;;;;;;2.63;100.00;95375.69;5067296;28;20091;-73
2023/04/21 03:34:28;;;;;;;21.25;18.83;;;;;;;2.71;100.00;95372.81;5068610;28;20049;-73
2023/04/21 03:36:55;;;;;;;23.45;18.67;;;;;;;2.70;100.00;95371.16;5075328;28;20044;-73
2023/04/21 03:39:23;;;;;;;21.63;19.45;;;;;;;2.62;100.00;95367.19;5071045;28;20135;-73
2023/04/21 03:41:50;;;;;;;19.25;17.35;;;;;;;2.62;100.00;95361.22;5070074;28;20049;-73
2023/04/21 03:44:16;;;;;;;21.60;18.38;;;;;;;2.64;100.00;95365.41;5062508;28;20491;-73
2023/04/21 03:46:43;;;;;;;21.05;19.00;;;;;;;2.72;100.00;95360.00;5071067;28;20051;-73
2023/04/21 03:49:09;;;;;;;20.95;18.60;;;;;;;2.75;100.00;95364.16;5079508;28;20048;-73
2023/04/21 03:51:35;;;;;;;22.80;19.85;;;;;;;2.70;100.00;95359.22;5065386;28;20049;-73
2023/04/21 03:54:02;;;;;;;24.63;20.30;;;;;;;2.62;100.00;95356.13;5071406;28;20040;-73
2023/04/21 03:56:30;;;;;;;20.70;18.08;;;;;;;2.55;100.00;95365.75;5076146;28;20052;-74
2023/04/21 03:58:56;;;;;;;19.35;17.30;;;;;;;2.64;100.00;95369.69;5072253;28;20490;-73
2023/04/21 04:01:23;;;;;;;25.58;19.02;;;;;;;2.48;100.00;95368.59;5077116;28;20049;-73
2023/04/21 04:03:49;;;;;;;26.13;17.48;;;;;;;2.56;100.00;95370.00;5076245;28;20096;-74
2023/04/21 04:06:16;;;;;;;20.60;17.02;;;;;;;2.67;100.00;95356.78;5079708;28;20115;-74
2023/04/21 04:08:42;;;;;;;18.70;16.20;;;;;;;2.74;100.00;95365.88;5075343;28;20052;-74
2023/04/21 04:11:09;;;;;;;20.33;17.85;;;;;;;2.74;100.00;95362.47;5078495;28;20499;-74
2023/04/21 04:13:36;;;;;;;19.30;17.30;;;;;;;2.81;100.00;95356.25;5074380;28;20049;-74
2023/04/21 04:16:03;;;;;;;21.33;15.98;;;;;;;2.82;100.00;95363.88;5071923;28;20098;-74
2023/04/21 04:18:29;;;;;;;16.42;14.73;;;;;;;2.77;100.00;95359.81;5081726;28;20051;-73
2023/04/21 04:20:56;;;;;;;20.83;17.38;;;;;;;2.56;100.00;95364.88;5071627;28;20556;-73
2023/04/21 04:23:22;;;;;;;20.02;15.20;;;;;;;2.41;100.00;95362.88;5072836;28;20090;-73
2023/04/21 04:25:50;;;;;;;20.73;16.65;;;;;;;2.50;100.00;95362.53;5066809;28;20064;-72
2023/04/21 04:28:17;;;;;;;16.15;14.55;;;;;;;2.57;100.00;95365.69;5075085;28;20049;-74
2023/04/21 04:30:44;;;;;;;17.83;15.43;;;;;;;2.66;100.00;95368.72;5066675;28;20105;-74
2023/04/21 04:33:11;;;;;;;17.77;15.82;;;;;;;2.63;100.00;95368.88;5074235;28;20049;-74
2023/04/21 04:35:37;;;;;;;18.17;16.25;;;;;;;2.56;100.00;95367.44;5068803;28;20495;-74
2023/04/21 04:38:04;;;;;;;17.40;15.60;;;;;;;2.56;100.00;95372.53;5076819;28;20048;-77
2023/04/21 04:40:32;;;;;;;23.15;16.50;;;;;;;2.63;100.00;95365.44;5066752;28;20044;-76
2023/04/21 04:42:58;;;;;;;29.75;23.50;;;;;;;2.47;100.00;95372.88;5074742;28;20113;-73
2023/04/21 04:45:27;;;;;;;21.52;18.75;;;;;;;2.61;100.00;95375.75;5080510;28;20048;-77
2023/04/21 04:47:55;;;;;;;20.70;18.10;;;;;;;2.64;100.00;95362.84;5066835;28;20048;-76
2023/04/21 04:50:21;;;;;;;21.48;17.48;;;;;;;2.62;100.00;95363.78;5074397;28;20151;-75
2023/04/21 04:52:48;;;;;;;24.27;16.35;;;;;;;2.58;100.00;95368.19;5070366;28;20441;-75
2023/04/21 04:55:15;;;;;;;17.33;15.63;;;;;;;2.66;100.00;95371.28;5079625;28;20040;-75
2023/04/21 04:57:41;;;;;;;17.73;15.93;;;;;;;2.64;100.00;95382.47;5071794;28;20048;-74
2023/04/21 05:00:10;;;;;;;18.60;16.50;;;;;;;2.72;100.00;95377.91;5072771;28;20093;-74
2023/04/21 05:02:36;;;;;;;19.83;16.63;;;;;;;2.60;100.00;95384.31;5074285;28;20048;-74
2023/04/21 05:05:06;;;;;;;22.05;17.00;;;;;;;2.53;100.00;95374.38;5076843;28;20044;-74
2023/04/21 05:07:33;;;;;;;18.52;16.50;;;;;;;2.52;100.00;95381.22;5073693;28;20053;-74
2023/04/21 05:09:59;;;;;;;17.60;15.80;;;;;;;2.52;100.00;95386.34;5072913;28;20052;-74
2023/04/21 05:12:26;;;;;;;22.83;17.02;;;;;;;2.49;100.00;95390.72;5072712;28;20069;-74
2023/04/21 05:14:52;;;;;;;17.63;15.93;;;;;;;2.46;100.00;95386.56;5064333;28;20090;-75
2023/04/21 05:17:18;;;;;;;23.02;16.33;;;;;;;2.62;100.00;95391.91;5078391;28;20053;-75
2023/04/21 05:19:45;;;;;;;16.85;14.88;;;;;;;2.75;100.00;95394.84;5067681;28;20073;-75
2023/04/21 05:22:13;;;;;;;16.38;14.75;;;;;;;2.82;100.00;95393.72;5080359;28;20052;-75
2023/04/21 05:24:41;;;;;;;17.50;14.48;;;;;;;2.87;100.00;95404.59;5076129;28;20099;-74
2023/04/21 05:27:08;;;;;;;19.20;12.98;;;;;;;2.90;100.00;95401.94;5071944;28;20706;-75
2023/04/21 05:29:34;;;;;;;15.23;13.70;;;;;;;2.89;100.00;95407.94;5068074;28;20503;-74
2023/04/21 05:32:01;;;;;;;15.77;14.15;;;;;;;2.96;100.00;95405.97;5076457;28;20045;-75
2023/04/21 05:34:27;;;;;;;16.42;14.63;;;;;;;3.11;100.00;95407.94;5063942;28;20148;-74
2023/04/21 05:36:54;;;;;;;14.40;12.90;;;;;;;3.12;100.00;95410.44;5068660;28;20526;-71
2023/04/21 05:39:22;;;;;;;18.45;14.00;;;;;;;3.21;100.00;95416.91;5060637;28;20068;-74
2023/04/21 05:41:48;;;;;;;15.77;14.20;;;;;;;3.27;100.00;95415.84;5065312;28;20090;-73
2023/04/21 05:44:16;;;;;;;24.63;14.88;;;;;;;3.20;100.00;95424.66;5082175;28;20044;-75
2023/04/21 05:46:42;;;;;;;16.17;13.48;;;;;;;3.28;100.00;95417.50;5067002;28;20089;-73
2023/04/21 05:49:09;;;;;;;13.20;11.88;;;;;;;3.30;100.00;95426.81;5075365;28;20517;-75
2023/04/21 05:51:35;;;;;;;16.65;14.85;;;;;;;3.23;100.00;95422.81;5079802;28;20094;-75
2023/04/21 05:54:02;;;;;;;18.75;13.70;;;;;;;3.41;100.00;95421.22;5071058;28;20476;-73
2023/04/21 05:56:30;;;;;;;15.88;14.35;;;;;;;3.51;100.00;95419.97;5065010;28;20056;-75
2023/04/21 05:58:56;;;;;;;18.05;15.23;;;;;;;3.55;100.00;95424.06;5062143;28;20102;-74
2023/04/21 06:01:22;;;;;;;16.92;14.07;;;;;;;3.29;100.00;95422.56;5067201;28;20450;-74
2023/04/21 06:03:49;;;;;;;17.45;15.18;;;;;;;3.25;100.00;95423.56;5077346;28;20101;-74
2023/04/21 06:06:17;;;;;;;20.45;16.17;;;;;;;3.22;100.00;95422.84;5071022;28;20136;-74
2023/04/21 06:08:43;;;;;;;15.27;13.65;;;;;;;3.06;100.00;95422.63;5061298;28;20051;-74
2023/04/21 06:11:10;;;;;;;17.83;14.13;;;;;;;3.06;100.00;95418.34;5076527;28;20186;-74
2023/04/21 06:13:37;;;;;;;19.40;15.43;;;;;;;3.10;100.00;95419.88;5065709;28;20052;-73
2023/04/21 06:16:05;;;;;;;19.60;15.48;;;;;;;3.24;100.00;95416.78;5074387;28;20121;-74
2023/04/21 06:18:31;;;;;;;19.98;16.00;;;;;;;3.23;100.00;95415.13;5071496;28;20090;-74
2023/04/21 06:20:57;;;;;;;16.58;14.25;;;;;;;3.09;100.00;95413.13;5069193;28;20498;-72
2023/04/21 06:23:24;;;;;;;15.32;13.73;;;;;;;3.12;100.00;95412.16;5071628;28;20044;-74
2023/04/21 06:26:00;;;;;;;20.90;14.85;;;;;;;3.21;100.00;95411.78;5076417;28;20052;-74
2023/04/21 06:28:26;;;;;;;16.90;14.95;;;;;;;3.24;100.00;95411.69;5068760;28;20059;-73
2023/04/21 06:30:54;;;;;;;16.23;14.57;;;;;;;3.50;100.00;95420.03;5073536;28;20048;-74
2023/04/21 06:33:21;;;;;;;17.23;15.52;;;;;;;3.52;100.00;95418.22;5060295;28;20053;-74
2023/04/21 06:35:47;;;;;;;17.10;15.27;;;;;;;3.37;100.00;95417.97;5062827;28;20460;-74
2023/04/21 06:38:13;;;;;;;16.48;14.85;;;;;;;3.45;100.00;95417.66;5066427;28;20052;-74
2023/04/21 06:40:40;;;;;;;15.88;14.20;;;;;;;3.30;100.00;95420.81;5075360;28;20098;-74
2023/04/21 06:43:06;;;;;;;14.75;13.32;;;;;;;3.31;100.00;95412.28;5060519;28;20049;-74
2023/04/21 06:45:33;;;;;;;16.60;14.68;;;;;;;3.39;100.00;95410.22;5075032;28;20048;-74
2023/04/21 06:48:01;;;;;;;17.92;14.38;;;;;;;3.43;100.00;95406.66;5066938;28;20098;-74
2023/04/21 06:50:27;;;;;;;16.65;13.77;;;;;;;3.72;100.00;95402.06;5083333;28;20052;-74
2023/04/21 06:52:53;;;;;;;17.30;13.52;;;;;;;3.99;100.00;95402.63;5074864;28;20521;-74
2023/04/21 06:55:20;;;;;;;17.42;15.43;;;;;;;3.89;100.00;95397.03;5076628;28;20098;-74
2023/04/21 06:57:46;;;;;;;24.65;14.98;;;;;;;3.61;100.00;95399.94;5070831;28;20122;-73
2023/04/21 07:00:14;;;;;;;16.27;14.57;;;;;;;3.46;100.00;95401.41;5072572;28;20081;-73
2023/04/21 07:02:41;;;;;;;24.02;14.68;;;;;;;3.62;100.00;95404.16;5076223;28;20056;-73
2023/04/21 07:05:09;;;;;;;14.75;13.23;;;;;;;3.90;100.00;95401.28;5075716;28;20143;-74
2023/04/21 07:07:36;;;;;;;18.13;15.05;;;;;;;4.27;100.00;95408.22;5068147;28;20053;-73
2023/04/21 07:10:02;;;;;;;22.30;15.70;;;;;;;4.53;100.00;95409.63;5073048;28;20060;-72
2023/04/21 07:12:29;;;;;;;20.67;17.88;;;;;;;4.40;100.00;95408.50;5073193;28;20048;-74
2023/04/21 07:14:55;;;;;;;18.15;16.30;;;;;;;4.56;100.00;95406.94;5069597;28;20499;-73
2023/04/21 07:17:22;;;;;;;19.40;16.92;;;;;;;4.89;100.00;95406.28;5072155;28;20126;-73
2023/04/21 07:19:48;;;;;;;18.13;16.35;;;;;;;5.08;100.00;95407.09;5066620;28;20117;-73
2023/04/21 07:22:16;;;;;;;20.73;14.38;;;;;;;5.40;100.00;95406.47;5070913;28;20452;-74
2023/04/21 07:24:43;;;;;;;17.48;15.50;;;;;;;5.29;100.00;95399.28;5072447;28;20048;-74
2023/04/21 07:27:09;;;;;;;18.40;14.80;;;;;;;5.45;100.00;95397.66;5064777;28;20106;-74
2023/04/21 07:29:36;;;;;;;15.85;14.25;;;;;;;5.88;100.00;95403.22;5065319;28;20049;-73
2023/04/21 07:32:02;;;;;;;13.40;12.10;;;;;;;5.87;100.00;95406.72;5053610;28;20106;-73
2023/04/21 07:34:29;;;;;;;14.05;12.63;;;;;;;5.46;100.00;95404.44;5074500;28;20045;-74
2023/04/21 07:36:56;;;;;;;13.25;11.20;;;;;;;5.70;100.00;95409.28;5070620;28;20049;-73
2023/04/21 07:39:23;;;;;;;12.60;11.35;;;;;;;6.05;100.00;95408.38;5066976;28;20098;-74
2023/04/21 07:41:50;;;;;;;10.77;9.65;;;;;;;6.18;100.00;95402.59;5078082;28;20070;-73
2023/04/21 07:44:16;;;;;;;12.00;10.10;;;;;;;6.27;100.00;95397.00;5061515;28;20041;-73
2023/04/21 07:46:43;;;;;;;13.38;10.63;;;;;;;6.87;100.00;95397.25;5067162;28;20048;-75
2023/04/21 07:49:09;;;;;;;12.70;11.40;;;;;;;7.48;100.00;95395.56;5069994;28;20056;-76
2023/04/21 07:51:36;;;;;;;12.90;11.60;;;;;;;8.09;100.00;95404.13;5063514;28;20498;-76
2023/04/21 07:54:02;;;;;;;11.88;10.68;;;;;;;8.00;100.00;95405.47;5075002;28;20159;-75
2023/04/21 07:56:30;;;;;;;11.27;10.07;;;;;;;7.65;100.00;95399.78;5070778;28;20041;-77
2023/04/21 07:58:56;;;;;;;10.95;9.85;;;;;;;7.55;100.00;95388.34;5071701;28;20055;-75
2023/04/21 08:01:23;;;;;;;12.60;10.20;;;;;;;7.60;100.00;95391.47;5064097;28;20044;-75
2023/04/21 08:03:50;;;;;;;11.70;10.55;;;;;;;7.70;100.00;95390.03;5067298;28;20440;-76
2023/04/21 08:06:16;;;;;;;16.38;9.88;;;;;;;7.82;100.00;95391.06;5074844;28;20127;-77
2023/04/21 08:08:43;;;;;;;12.27;9.98;;;;;;;8.10;100.00;95385.16;5076062;28;20109;-76
2023/04/21 08:11:09;;;;;;;10.93;9.93;;;;;;;8.04;100.00;95380.34;5071213;28;20101;-77
2023/04/21 08:13:37;;;;;;;9.90;8.70;;;;;;;7.69;100.00;95378.06;5068899;28;20044;-76
2023/04/21 08:16:04;;;;;;;15.70;9.90;;;;;;;7.78;100.00;95374.13;5066525;28;20090;-76
2023/04/21 08:18:31;;;;;;;14.75;8.77;;;;;;;8.02;100.00;95377.84;5064430;28;20110;-77
2023/04/21 08:20:57;;;;;;;13.20;8.55;;;;;;;8.37;100.00;95375.78;5058073;28;20136;-77
2023/04/21 08:23:23;;;;;;;9.98;9.05;;;;;;;8.34;100.00;95368.19;5064990;28;20106;-77
2023/04/21 08:25:50;;;;;;;;;;;;;;;9.02;100.00;95374.41;5065306;28;20041;-77
2023/04/21 08:28:16;;;;;;;8.48;7.53;;;;;;;9.41;100.00;95369.25;5079953;28;19924;-77
2023/04/21 08:30:44;;;;;;;;;;;;;;;9.41;100.00;95366.69;5062720;28;20052;-77
2023/04/21 08:33:12;;;;;;;;;;;;;;;9.70;100.00;95366.56;5067936;28;19920;-77
2023/04/21 08:35:38;;;;;;;;;;;;;;;9.53;100.00;95372.84;5071846;28;19931;-77
2023/04/21 08:38:05;;;;;;;;;;;;;;;9.59;100.00;95369.84;5082299;28;19995;-76
2023/04/21 08:40:32;;;;;;;;;;;;;;;9.98;100.00;95370.72;5059300;28;19928;-76
2023/04/21 08:42:58;;;;;;;;;;;;;;;9.84;100.00;95376.81;5070634;28;19924;-76
2023/04/21 08:45:25;;;;;;;;;;;;;;;9.73;100.00;95370.69;5068937;28;20268;-76
2023/04/21 08:47:54;;;;;;;;;;;;;;;9.63;100.00;95365.28;5071325;28;19920;-76
2023/04/21 08:50:20;;;;;;;;;;;;;;;9.51;100.00;95363.50;5080292;28;19920;-76
2023/04/21 08:52:47;;;;;;;;;;;;;;;9.45;100.00;95368.16;5069703;28;19924;-76
2023/04/21 08:55:13;;;;;;;;;;;;;;;9.52;100.00;95365.16;5077074;28;19924;-76
2023/04/21 08:57:40;;;;;;;;;;;;;;;10.06;100.00;95370.22;5062499;28;19974;-76
2023/04/21 09:00:07;;;;;;;;;;;;;;;10.09;100.00;95370.03;5070856;28;19974;-75
2023/04/21 09:02:33;;;;;;;;;;;;;;;10.79;100.00;95366.94;5064192;28;20474;-76
2023/04/21 09:05:01;;;;;;;;;;;;;;;10.81;100.00;95362.50;5076453;28;19977;-76
2023/04/21 09:07:31;;;;;;;;;;;;;;;10.88;100.00;95363.72;5062813;28;20260;-76
2023/04/21 09:09:59;;;;;;;;;;;;;;;10.98;100.00;95361.34;5073715;28;19920;-76
2023/04/21 09:12:25;;;;;;;;;;;;;;;11.78;100.00;95359.78;5071061;28;20015;-76
2023/04/21 09:14:51;;;;;;;;;;;;;;;12.48;100.00;95356.25;5067240;28;19921;-76
2023/04/21 09:17:18;;;;;;;;;;;;;;;12.54;100.00;95360.19;5067439;28;19928;-76
2023/04/21 09:19:45;;;;;;;;;;;;;;;12.75;100.00;95363.69;5073172;28;19928;-77
2023/04/21 09:22:16;;;;;;;;;;;;;;;13.04;100.00;95358.81;5064533;28;19920;-76
2023/04/21 09:24:46;;;;;;;;;;;;;;;13.26;100.00;95357.13;5074843;28;19973;-76
2023/04/21 09:27:15;;;;;;;;;;;;;;;13.39;100.00;95352.63;5065572;28;20019;-76
2023/04/21 09:29:45;;;;;;;;;;;;;;;13.43;100.00;95356.63;5071248;28;20417;-76
2023/04/21 09:32:12;;;;;;;;;;;;;;;13.56;100.00;95357.25;5075137;28;20440;-76
2023/04/21 09:34:41;;;;;;;;;;;;;;;13.48;100.00;95364.88;5073361;28;19920;-76
2023/04/21 09:37:07;;;;;;;;;;;;;;;13.67;100.00;95351.19;5067464;28;20348;-76
2023/04/21 09:39:35;;;;;;;;;;;;;;;13.48;100.00;95356.25;5081665;28;20279;-76
2023/04/21 09:42:01;;;;;;;;;;;;;;;13.28;100.00;95356.06;5081006;28;19920;-76
2023/04/21 09:44:27;;;;;;;;;;;;;;;13.00;100.00;95359.19;5084689;28;20039;-76
2023/04/21 09:46:58;;;;;;;;;;;;;;;13.24;100.00;95349.47;5064334;28;19974;-76
2023/04/21 09:49:28;;;;;;;;;;;;;;;13.14;100.00;95342.50;5072688;28;19966;-76
2023/04/21 09:51:55;;;;;;;;;;;;;;;13.32;100.00;95335.84;5061035;28;19925;-76
2023/04/21 09:54:21;;;;;;;;;;;;;;;13.53;100.00;95346.28;5056975;28;19932;-75
2023/04/21 09:56:49;;;;;;;;;;;;;;;13.63;100.00;95343.75;5058563;28;19920;-76
2023/04/21 09:59:18;;;;;;;;;;;;;;;13.37;100.00;95351.09;5068921;28;20006;-76
2023/04/21 10:01:46;;;;;;;;;;;;;;;13.44;100.00;95339.22;5092305;28;19970;-75
2023/04/21 10:04:13;;;;;;;;;;;;;;;13.64;100.00;95335.00;5082545;28;19921;-75
2023/04/21 10:06:39;;;;;;;;;;;;;;;13.85;100.00;95327.22;5092425;28;19927;-75
2023/04/21 10:09:06;;;;;;;;;;;;;;;13.84;100.00;95329.00;5086281;28;19924;-76
2023/04/21 10:11:34;;;;;;;;;;;;;;;13.86;100.00;95327.06;5077389;28;19926;-75
2023/04/21 10:14:02;;;;;;;;;;;;;;;13.94;100.00;95331.63;5081946;28;19920;-75
2023/04/21 10:16:28;;;;;;;;;;;;;;;14.20;100.00;95325.09;5065362;28;19921;-75
2023/04/21 10:18:54;;;;;;;;;;;;;;;14.36;100.00;95323.81;5077150;28;19920;-75
2023/04/21 10:21:23;;;;;;;;;;;;;;;14.31;100.00;95320.75;5064959;28;19920;-75
2023/04/21 10:23:50;;;;;;;;;;;;;;;14.23;100.00;95324.00;5073082;28;19924;-75
2023/04/21 10:26:20;;;;;;;;;;;;;;;13.93;100.00;95328.22;5073612;28;19963;-75
2023/04/21 10:28:48;;;;;;;;;;;;;;;14.48;100.00;95320.16;5068668;28;19975;-74
2023/04/21 10:31:24;;;;;;;;;;;;;;;14.59;100.00;95314.06;5071683;28;19920;-77
2023/04/21 10:34:09;;;;;;;;;;;;;;;14.62;92.57;95309.41;5075854;28;19920;-78
2023/04/21 10:36:42;;;;;;;;;;;;;;;14.76;100.00;95305.63;5069311;28;19924;-75
2023/04/21 10:39:11;;;;;;;;;;;;;;;14.77;100.00;95309.84;5080806;28;19932;-76
2023/04/21 10:41:37;;;;;;;;;;;;;;;14.55;100.00;95308.28;5081360;28;20023;-75
2023/04/21 10:44:11;;;;;;;;;;;;;;;14.65;100.00;95309.16;5072565;28;19924;-76
2023/04/21 10:46:40;;;;;;;;;;;;;;;14.90;100.00;95307.00;5077094;28;20011;-76
2023/04/21 10:49:08;;;;;;;;;;;;;;;14.93;89.43;95304.13;5082700;28;19974;-74
2023/04/21 10:51:57;;;;;;;;;;;;;;;14.97;85.96;95311.53;5064815;28;19929;-73
2023/04/21 10:54:24;;;;;;;;;;;;;;;15.18;92.84;95306.22;5073775;28;19924;-75
2023/04/21 10:56:51;;;;;;;;;;;;;;;15.33;100.00;95296.22;5075104;28;19967;-74
2023/04/21 10:59:17;;;;;;;;;;;;;;;15.11;89.06;95296.47;5068264;28;19920;-72
2023/04/21 11:01:45;;;;;;;;;;;;;;;14.89;93.55;95292.31;5076965;28;20390;-72
2023/04/21 11:04:13;;;;;;;;;;;;;;;15.11;98.80;95292.06;5075447;28;19983;-72
2023/04/21 11:06:39;;;;;;;;;;;;;;;15.42;91.80;95291.94;5073901;28;19978;-73
2023/04/21 11:09:06;;;;;;;;;;;;;;;15.43;86.08;95296.22;5082110;28;20313;-71
2023/04/21 11:11:32;;;;;;;;;;;;;;;15.48;89.75;95296.63;5060144;28;19925;-71
2023/04/21 11:13:59;;;;;;;;;;;;;;;15.47;93.04;95290.59;5077512;28;19963;-74
2023/04/21 11:16:26;;;;;;;;;;;;;;;15.38;94.08;95288.78;5067624;28;19928;-74
2023/04/21 11:18:56;;;;;;;;;;;;;;;15.01;88.21;95288.63;5078765;28;20374;-71
2023/04/21 11:21:23;;;;;;;;;;;;;;;15.16;82.81;95281.22;5073843;28;19927;-71
2023/04/21 11:23:50;;;;;;;;;;;;;;;15.09;88.58;95272.28;5079706;28;20390;-72
2023/04/21 11:26:17;;;;;;;;;;;;;;;15.28;85.88;95276.69;5066032;28;19920;-74
2023/04/21 11:28:47;;;;;;;;;;;;;;;15.23;84.63;95279.72;5069606;28;19926;-76
2023/04/21 11:31:13;;;;;;;;;;;;;;;15.48;98.17;95278.38;5079737;28;19920;-77
2023/04/21 11:33:39;;;;;;;;;;;;;;;15.51;98.43;95278.09;5073656;28;19920;-76
2023/04/21 11:36:07;;;;;;;;;;;;;;;15.48;100.00;95278.38;5070870;28;19925;-74
2023/04/21 11:38:37;;;;;;;;;;;;;;;15.05;92.23;95278.75;5064004;28;19990;-75
2023/04/21 11:41:04;;;;;;;;;;;;;;;15.17;93.22;95278.50;5068729;28;20185;-74